Time;durP1;ratioP1;P1;durP2;ratioP2;P2;SDS_P1;SDS_P2;PMS_P1;PMS_P2;Temp;Humidity;BMP_temperature;BMP_pressure;BME280_temperature;BME280_humidity;BME280_pressure;Samples;Min_cycle;Max_cycle;Signal;HPM_P1;HPM_P2
2023/07/26 00:01:47;;;;;;;22.37;21.57;;;23.60;59.00;;;;;;5050861;28;20486;-64
2023/07/26 00:04:14;;;;;;;23.20;22.30;;;23.50;59.10;;;;;;5051026;28;20905;-64
2023/07/26 00:06:42;;;;;;;23.00;22.10;;;23.50;59.10;;;;;;5050683;28;20503;-65
2023/07/26 00:09:09;;;;;;;22.67;21.77;;;23.50;59.30;;;;;;5050741;28;20563;-64
2023/07/26 00:11:37;;;;;;;23.47;22.57;;;23.50;59.40;;;;;;5050691;28;20499;-65
2023/07/26 00:14:04;;;;;;;23.93;22.90;;;23.50;59.60;;;;;;5051001;28;20486;-64
2023/07/26 00:16:31;;;;;;;24.13;23.33;;;23.40;59.50;;;;;;5050422;28;20460;-65
2023/07/26 00:18:58;;;;;;;24.10;23.20;;;23.40;59.60;;;;;;5050876;28;20440;-64
2023/07/26 00:21:25;;;;;;;24.87;23.97;;;23.40;59.60;;;;;;5050578;28;20502;-64
2023/07/26 00:23:53;;;;;;;23.43;22.63;;;23.40;59.70;;;;;;5050852;28;20476;-65
2023/07/26 00:26:20;;;;;;;23.63;22.73;;;23.40;59.80;;;;;;5050454;28;20445;-64
2023/07/26 00:28:47;;;;;;;23.17;22.20;;;23.40;59.90;;;;;;5050660;28;20476;-64
2023/07/26 00:31:14;;;;;;;24.20;23.40;;;23.40;59.90;;;;;;5050505;28;20540;-64
2023/07/26 00:33:41;;;;;;;24.07;22.90;;;23.40;60.10;;;;;;5050761;28;20523;-64
2023/07/26 00:36:09;;;;;;;23.60;22.70;;;23.40;60.30;;;;;;5053240;28;20475;-64
2023/07/26 00:38:35;;;;;;;23.40;22.50;;;23.30;60.30;;;;;;5046413;28;20502;-64
2023/07/26 00:41:05;;;;;;;23.77;22.97;;;23.30;60.30;;;;;;5054255;28;20482;-64
2023/07/26 00:43:32;;;;;;;23.97;23.10;;;23.30;60.60;;;;;;5054236;28;20444;-64
2023/07/26 00:46:00;;;;;;;24.53;23.63;;;23.30;60.60;;;;;;5054066;28;20483;-64
2023/07/26 00:48:27;;;;;;;23.70;22.80;;;23.30;60.70;;;;;;5054129;28;20496;-64
2023/07/26 00:50:54;;;;;;;24.00;23.10;;;23.30;60.80;;;;;;5054022;28;20515;-64
2023/07/26 00:53:21;;;;;;;24.17;23.37;;;23.30;60.80;;;;;;5054208;28;20502;-64
2023/07/26 00:55:50;;;;;;;23.90;23.10;;;23.30;61.00;;;;;;5054124;28;20452;-64
2023/07/26 00:58:18;;;;;;;27.80;26.83;;;23.20;61.00;;;;;;5053817;28;20499;-65
2023/07/26 01:00:45;;;;;;;23.73;22.83;;;23.20;61.10;;;;;;5054020;28;20472;-64
2023/07/26 01:03:12;;;;;;;23.57;22.70;;;23.30;61.30;;;;;;5053925;28;20475;-64
2023/07/26 01:05:47;;;;;;;23.50;22.60;;;23.20;61.40;;;;;;5053894;28;20475;-64
2023/07/26 01:08:22;;;;;;;24.10;23.20;;;23.20;61.60;;;;;;5053530;28;20490;-64
2023/07/26 01:10:53;;;;;;;24.30;23.20;;;23.20;61.40;;;;;;5053653;28;20511;-64
2023/07/26 01:13:43;;;;;;;23.73;22.83;;;23.20;61.70;;;;;;5053575;28;20859;-64
2023/07/26 01:16:09;;;;;;;24.67;23.87;;;23.20;61.80;;;;;;5053454;28;20476;-64
2023/07/26 01:18:38;;;;;;;24.63;23.77;;;23.20;61.80;;;;;;5045483;28;20487;-64
2023/07/26 01:21:05;;;;;;;24.53;23.60;;;23.20;61.90;;;;;;5053634;28;20483;-64
2023/07/26 01:23:33;;;;;;;24.10;23.00;;;23.20;62.00;;;;;;5053503;28;20503;-64
2023/07/26 01:26:00;;;;;;;24.20;23.30;;;23.20;62.20;;;;;;5053455;28;20534;-64
2023/07/26 01:28:27;;;;;;;24.07;23.27;;;23.10;62.20;;;;;;5053254;28;20499;-64
2023/07/26 01:30:57;;;;;;;23.80;22.90;;;23.10;62.30;;;;;;5053270;28;20522;-64
2023/07/26 01:33:25;;;;;;;25.33;24.43;;;23.10;62.40;;;;;;5053382;28;20471;-64
2023/07/26 01:35:53;;;;;;;25.23;24.37;;;23.10;62.80;;;;;;5053304;28;20476;-64
2023/07/26 01:38:21;;;;;;;24.07;23.27;;;23.10;62.70;;;;;;5053068;28;20990;-64
2023/07/26 01:40:51;;;;;;;25.93;24.90;;;23.10;62.60;;;;;;5053114;28;20475;-64
2023/07/26 01:43:18;;;;;;;24.83;23.93;;;23.10;62.80;;;;;;5053227;28;20480;-64
2023/07/26 01:45:45;;;;;;;25.07;24.07;;;23.10;62.60;;;;;;5052855;28;20444;-64
2023/07/26 01:48:11;;;;;;;24.17;23.27;;;23.10;62.80;;;;;;5052756;28;20530;-63
2023/07/26 01:50:38;;;;;;;24.30;23.50;;;23.10;62.90;;;;;;5052843;28;20956;-64
2023/07/26 01:53:05;;;;;;;24.43;23.63;;;23.10;63.00;;;;;;5053013;28;20538;-64
2023/07/26 01:55:32;;;;;;;23.80;23.00;;;23.10;63.10;;;;;;5052715;28;20468;-64
2023/07/26 01:58:00;;;;;;;24.20;23.13;;;23.00;63.00;;;;;;5052756;28;20492;-64
2023/07/26 02:00:27;;;;;;;24.73;23.83;;;23.00;63.10;;;;;;5052558;28;20479;-64
2023/07/26 02:02:54;;;;;;;25.07;24.17;;;23.00;63.10;;;;;;5052969;28;20476;-64
2023/07/26 02:05:21;;;;;;;25.53;24.63;;;23.00;63.10;;;;;;5052991;28;20445;-64
2023/07/26 02:07:48;;;;;;;24.93;24.00;;;23.00;63.30;;;;;;5052576;28;20508;-64
2023/07/26 02:10:15;;;;;;;24.97;23.97;;;23.00;63.40;;;;;;5052265;28;20552;-64
2023/07/26 02:12:42;;;;;;;24.63;23.73;;;23.00;63.40;;;;;;5052357;28;20506;-64
2023/07/26 02:15:11;;;;;;;23.97;23.07;;;23.00;63.40;;;;;;5052697;28;20987;-64
2023/07/26 02:17:38;;;;;;;24.47;23.57;;;23.00;63.60;;;;;;5052313;28;20510;-64
2023/07/26 02:20:05;;;;;;;23.63;22.73;;;23.00;63.70;;;;;;5052178;28;20794;-64
2023/07/26 02:22:33;;;;;;;23.50;22.70;;;23.00;63.80;;;;;;5051247;28;20485;-64
2023/07/26 02:25:00;;;;;;;22.70;21.90;;;23.00;63.90;;;;;;5052008;28;20586;-64
2023/07/26 02:27:26;;;;;;;24.97;24.07;;;23.00;64.00;;;;;;5052072;28;20499;-65
2023/07/26 02:29:53;;;;;;;24.80;23.90;;;23.00;64.00;;;;;;5052012;28;20530;-65
2023/07/26 02:32:22;;;;;;;24.80;23.80;;;23.00;64.20;;;;;;5052238;28;20951;-64
2023/07/26 02:34:48;;;;;;;25.67;24.47;;;23.00;64.20;;;;;;5052354;28;20531;-64
2023/07/26 02:37:15;;;;;;;24.30;23.40;;;23.00;64.30;;;;;;5051771;28;20507;-64
2023/07/26 02:39:42;;;;;;;24.03;23.13;;;22.90;64.20;;;;;;5051925;28;20483;-64
2023/07/26 02:42:09;;;;;;;24.17;23.27;;;23.00;64.50;;;;;;5052212;28;20476;-64
2023/07/26 02:44:36;;;;;;;24.93;23.93;;;22.90;64.40;;;;;;5051904;28;20472;-64
2023/07/26 02:47:03;;;;;;;25.63;24.63;;;22.90;65.20;;;;;;5051589;28;20503;-64
2023/07/26 02:49:32;;;;;;;24.17;23.37;;;22.90;64.60;;;;;;5051742;28;20476;-64
2023/07/26 02:51:59;;;;;;;24.03;23.03;;;22.90;64.70;;;;;;5052030;28;20551;-64
2023/07/26 02:54:26;;;;;;;23.67;22.80;;;22.90;64.60;;;;;;5051865;28;20483;-64
2023/07/26 02:56:53;;;;;;;26.13;24.50;;;22.90;64.70;;;;;;5051528;28;20913;-64
2023/07/26 02:59:20;;;;;;;24.70;23.80;;;22.90;64.80;;;;;;5050973;28;20483;-63
2023/07/26 03:01:47;;;;;;;24.93;24.03;;;22.90;64.90;;;;;;5051739;28;20468;-64
2023/07/26 03:04:14;;;;;;;25.03;24.10;;;22.90;64.90;;;;;;5051816;28;20684;-65
2023/07/26 03:06:42;;;;;;;24.60;23.70;;;22.90;65.10;;;;;;5043471;28;20900;-64
2023/07/26 03:09:09;;;;;;;24.53;23.53;;;22.90;65.20;;;;;;5051391;28;20484;-64
2023/07/26 03:11:36;;;;;;;23.83;22.93;;;22.90;65.30;;;;;;5051373;28;20567;-64
2023/07/26 03:14:03;;;;;;;24.77;23.87;;;22.90;65.40;;;;;;5051589;28;20455;-64
2023/07/26 03:16:30;;;;;;;24.07;23.27;;;22.90;65.50;;;;;;5051295;28;20464;-64
2023/07/26 03:18:57;;;;;;;25.53;24.53;;;22.90;65.40;;;;;;5051059;28;20484;-65
2023/07/26 03:21:24;;;;;;;26.60;25.50;;;22.80;65.40;;;;;;5051336;28;20472;-64
2023/07/26 03:23:52;;;;;;;25.00;23.90;;;22.90;65.60;;;;;;5051412;28;20452;-64
2023/07/26 03:26:19;;;;;;;25.47;24.27;;;22.90;65.80;;;;;;5051158;28;20483;-64
2023/07/26 03:28:46;;;;;;;25.63;24.63;;;22.80;65.50;;;;;;5050895;28;20476;-65
2023/07/26 03:31:13;;;;;;;24.47;23.57;;;22.80;65.80;;;;;;5051314;28;20901;-64
2023/07/26 03:33:40;;;;;;;25.70;24.60;;;22.80;65.80;;;;;;5043049;28;20475;-64
2023/07/26 03:36:07;;;;;;;25.97;24.87;;;22.80;65.80;;;;;;5051143;28;20476;-64
2023/07/26 03:38:34;;;;;;;26.13;25.13;;;22.80;65.90;;;;;;5050729;28;20483;-64
2023/07/26 03:41:02;;;;;;;27.57;26.37;;;22.80;65.90;;;;;;5050938;28;20472;-63
2023/07/26 03:43:29;;;;;;;27.53;26.43;;;22.80;65.90;;;;;;5051004;28;20476;-63
2023/07/26 03:45:56;;;;;;;25.00;24.00;;;22.80;66.10;;;;;;5050993;28;20449;-65
2023/07/26 03:48:23;;;;;;;27.20;26.10;;;22.80;66.10;;;;;;5050443;28;20542;-65
2023/07/26 03:50:49;;;;;;;25.70;24.77;;;22.80;66.20;;;;;;5051047;28;20554;-64
2023/07/26 03:53:16;;;;;;;26.20;25.10;;;22.80;66.20;;;;;;5050963;28;20459;-64
2023/07/26 03:55:43;;;;;;;26.47;25.47;;;22.80;66.20;;;;;;5050968;28;20479;-64
2023/07/26 03:58:11;;;;;;;25.40;24.40;;;22.80;66.40;;;;;;5050523;28;20503;-64
2023/07/26 04:00:39;;;;;;;27.43;26.13;;;22.80;66.40;;;;;;5050762;28;20516;-64
2023/07/26 04:03:06;;;;;;;29.30;28.07;;;22.80;66.60;;;;;;5050933;28;20475;-64
2023/07/26 04:05:33;;;;;;;29.07;27.97;;;22.80;66.70;;;;;;5050861;28;20932;-64
2023/07/26 04:08:00;;;;;;;30.27;29.17;;;22.80;66.90;;;;;;5050340;28;20995;-65
2023/07/26 04:10:28;;;;;;;31.03;29.73;;;22.70;66.80;;;;;;5054010;28;20511;-63
2023/07/26 04:12:55;;;;;;;30.60;29.30;;;22.70;67.00;;;;;;5055208;28;20459;-65
2023/07/26 04:15:23;;;;;;;28.60;27.50;;;22.70;66.90;;;;;;5054763;28;20476;-64
2023/07/26 04:17:50;;;;;;;30.10;29.00;;;22.70;67.30;;;;;;5054254;28;20503;-64
2023/07/26 04:20:17;;;;;;;29.70;28.60;;;22.70;67.40;;;;;;5054766;28;20448;-64
2023/07/26 04:22:44;;;;;;;29.60;28.57;;;22.70;67.60;;;;;;5054751;28;20859;-64
2023/07/26 04:25:11;;;;;;;29.93;28.63;;;22.70;67.80;;;;;;5054769;28;20476;-64
2023/07/26 04:27:38;;;;;;;28.67;27.57;;;22.70;67.80;;;;;;5056632;28;20819;-64
2023/07/26 04:30:06;;;;;;;29.30;28.20;;;22.70;67.90;;;;;;5059549;28;20498;-64
2023/07/26 04:32:34;;;;;;;30.20;28.97;;;22.70;68.40;;;;;;5054336;28;20480;-64
2023/07/26 04:35:01;;;;;;;31.17;29.60;;;22.70;68.50;;;;;;5054487;28;20476;-64
2023/07/26 04:37:28;;;;;;;31.17;29.67;;;22.70;69.10;;;;;;5053844;28;20503;-63
2023/07/26 04:39:54;;;;;;;30.70;28.77;;;22.70;70.50;;;;;;5054117;28;20486;-65
2023/07/26 04:42:21;;;;;;;29.80;28.33;;;22.70;72.00;;;;;;5053894;28;20476;-64
2023/07/26 04:44:48;;;;;;;29.83;28.13;;;22.70;72.40;;;;;;5054384;28;20983;-64
2023/07/26 04:47:18;;;;;;;30.37;28.80;;;22.70;72.60;;;;;;5053939;28;20471;-64
2023/07/26 04:49:46;;;;;;;29.07;27.57;;;22.70;72.90;;;;;;5046425;28;20501;-64
2023/07/26 04:52:13;;;;;;;30.67;29.03;;;22.70;73.40;;;;;;5054114;28;20534;-64
2023/07/26 04:54:40;;;;;;;32.17;30.73;;;22.70;73.40;;;;;;5054051;28;20533;-64
2023/07/26 04:57:06;;;;;;;29.43;28.00;;;22.70;73.70;;;;;;5053727;28;20495;-64
2023/07/26 04:59:33;;;;;;;29.40;27.77;;;22.70;73.50;;;;;;5054191;28;20479;-63
2023/07/26 05:02:00;;;;;;;30.03;28.20;;;22.70;73.70;;;;;;5054027;28;20440;-64
2023/07/26 05:04:27;;;;;;;31.10;29.80;;;22.70;73.90;;;;;;5053971;28;20498;-64
2023/07/26 05:06:55;;;;;;;29.90;28.30;;;22.70;73.60;;;;;;5053593;28;20610;-65
2023/07/26 05:09:22;;;;;;;30.63;29.13;;;22.70;73.70;;;;;;5053750;28;20484;-64
2023/07/26 05:11:49;;;;;;;29.27;27.97;;;22.70;73.80;;;;;;5053668;28;21014;-65
2023/07/26 05:14:17;;;;;;;30.17;28.70;;;22.70;73.60;;;;;;5053871;28;21149;-64
2023/07/26 05:16:44;;;;;;;29.07;27.67;;;22.70;73.40;;;;;;5045251;28;20464;-64
2023/07/26 05:19:11;;;;;;;29.90;28.20;;;22.70;73.50;;;;;;5053923;28;20521;-64
2023/07/26 05:21:37;;;;;;;30.17;28.53;;;22.70;73.50;;;;;;5052917;28;20475;-64
2023/07/26 05:24:06;;;;;;;29.97;28.53;;;22.70;73.30;;;;;;5053530;28;20486;-64
2023/07/26 05:26:33;;;;;;;28.60;27.30;;;22.70;73.60;;;;;;5053180;28;20492;-64
2023/07/26 05:29:00;;;;;;;31.37;29.93;;;22.70;73.30;;;;;;5053513;28;20502;-64
2023/07/26 05:31:27;;;;;;;31.67;30.10;;;22.70;73.20;;;;;;5053368;28;20508;-64
2023/07/26 05:33:53;;;;;;;29.90;28.57;;;22.70;73.10;;;;;;5053641;28;20551;-64
2023/07/26 05:36:20;;;;;;;31.60;30.10;;;22.70;73.10;;;;;;5053091;28;20476;-64
2023/07/26 05:38:47;;;;;;;30.73;29.07;;;22.70;73.00;;;;;;5053288;28;20480;-64
2023/07/26 05:41:15;;;;;;;34.03;31.60;;;22.70;72.90;;;;;;5053424;28;20472;-65
2023/07/26 05:43:42;;;;;;;29.57;28.07;;;22.70;72.90;;;;;;5053360;28;20476;-65
2023/07/26 05:46:10;;;;;;;30.03;28.80;;;22.70;72.90;;;;;;5053020;28;20445;-65
2023/07/26 05:48:36;;;;;;;31.43;29.83;;;22.70;72.80;;;;;;5052722;28;20865;-65
2023/07/26 05:51:04;;;;;;;29.17;27.77;;;22.70;72.80;;;;;;5053008;28;20538;-64
2023/07/26 05:53:31;;;;;;;27.90;26.80;;;22.70;72.80;;;;;;5053066;28;20452;-65
2023/07/26 05:55:57;;;;;;;29.63;28.43;;;22.70;72.80;;;;;;5052887;28;20448;-65
2023/07/26 05:58:26;;;;;;;29.43;28.07;;;22.70;72.80;;;;;;5052528;28;20503;-65
2023/07/26 06:00:53;;;;;;;29.33;28.03;;;22.70;72.80;;;;;;5052758;28;20476;-65
2023/07/26 06:03:20;;;;;;;30.43;29.10;;;22.70;72.70;;;;;;5052699;28;20463;-65
2023/07/26 06:05:47;;;;;;;31.50;30.23;;;22.70;72.60;;;;;;5052668;28;20712;-65
2023/07/26 06:08:14;;;;;;;31.40;30.10;;;22.70;72.50;;;;;;5052687;28;20994;-65
2023/07/26 06:10:41;;;;;;;35.77;34.30;;;22.70;72.60;;;;;;5052666;28;20460;-65
2023/07/26 06:13:12;;;;;;;31.23;30.00;;;22.70;72.70;;;;;;5052831;28;20443;-65
2023/07/26 06:15:40;;;;;;;31.97;30.67;;;22.70;72.60;;;;;;5052542;28;20451;-64
2023/07/26 06:18:08;;;;;;;30.80;29.43;;;22.70;72.50;;;;;;5052350;28;20491;-65
2023/07/26 06:20:35;;;;;;;31.90;30.70;;;22.70;72.50;;;;;;5052349;28;20827;-65
2023/07/26 06:23:02;;;;;;;31.60;30.20;;;22.70;72.50;;;;;;5052499;28;20872;-63
2023/07/26 06:25:29;;;;;;;32.47;31.00;;;22.70;72.40;;;;;;5052314;28;20471;-65
2023/07/26 06:27:56;;;;;;;32.23;31.03;;;22.70;72.60;;;;;;5052114;28;20468;-64
2023/07/26 06:30:22;;;;;;;32.10;30.70;;;22.70;72.50;;;;;;5052301;28;20480;-65
2023/07/26 06:32:51;;;;;;;32.93;31.63;;;22.70;72.40;;;;;;5051129;28;21033;-65
2023/07/26 06:35:18;;;;;;;33.13;31.73;;;22.70;72.40;;;;;;5052310;28;20585;-63
2023/07/26 06:37:45;;;;;;;32.60;31.30;;;22.70;72.30;;;;;;5051848;28;20496;-64
2023/07/26 06:40:13;;;;;;;32.87;31.47;;;22.70;72.30;;;;;;5052158;28;20944;-64
2023/07/26 06:42:40;;;;;;;33.00;31.67;;;22.70;72.40;;;;;;5052009;28;20476;-64
2023/07/26 06:45:08;;;;;;;31.67;30.37;;;22.70;72.40;;;;;;5052000;28;20483;-64
2023/07/26 06:47:34;;;;;;;32.57;31.17;;;22.60;72.10;;;;;;5051417;28;21059;-64
2023/07/26 06:50:03;;;;;;;31.40;30.10;;;22.70;72.20;;;;;;5051897;28;20480;-64
2023/07/26 06:52:31;;;;;;;31.67;30.00;;;22.70;72.30;;;;;;5051689;28;20468;-64
2023/07/26 06:54:57;;;;;;;30.33;28.93;;;22.70;72.30;;;;;;5051861;28;20912;-65
2023/07/26 06:57:24;;;;;;;29.30;28.00;;;22.70;72.20;;;;;;5051437;28;20523;-64
2023/07/26 06:59:51;;;;;;;30.53;29.33;;;22.70;72.20;;;;;;5051851;28;20479;-64
2023/07/26 07:02:18;;;;;;;31.80;30.60;;;22.70;72.30;;;;;;5051825;28;20463;-65
2023/07/26 07:04:45;;;;;;;32.13;30.83;;;22.70;72.20;;;;;;5051571;28;20487;-64
2023/07/26 07:07:13;;;;;;;34.60;33.20;;;22.70;72.20;;;;;;5051419;28;20499;-64
2023/07/26 07:09:40;;;;;;;33.87;32.37;;;22.60;72.20;;;;;;5051693;28;20501;-64
2023/07/26 07:12:09;;;;;;;32.43;30.83;;;22.70;72.30;;;;;;5051576;28;21053;-65
2023/07/26 07:14:36;;;;;;;30.57;29.30;;;22.60;72.10;;;;;;5051573;28;20484;-65
2023/07/26 07:17:03;;;;;;;31.40;30.00;;;22.60;72.20;;;;;;5051142;28;20472;-64
2023/07/26 07:19:30;;;;;;;32.47;31.07;;;22.70;72.20;;;;;;5051356;28;20983;-65
2023/07/26 07:21:57;;;;;;;31.60;30.40;;;22.60;72.00;;;;;;5051579;28;20471;-65
2023/07/26 07:24:25;;;;;;;30.60;29.40;;;22.60;72.20;;;;;;5051254;28;20491;-65
2023/07/26 07:26:52;;;;;;;29.33;28.13;;;22.70;72.20;;;;;;5051172;28;20500;-65
2023/07/26 07:29:19;;;;;;;29.80;28.60;;;22.70;72.20;;;;;;5051364;28;20502;-64
2023/07/26 07:31:46;;;;;;;29.60;28.40;;;22.70;72.20;;;;;;5051122;28;20921;-65
2023/07/26 07:34:13;;;;;;;31.63;30.33;;;22.60;72.00;;;;;;5051177;28;20448;-65
2023/07/26 07:36:40;;;;;;;30.97;29.70;;;22.70;72.20;;;;;;5050844;28;20468;-64
2023/07/26 07:39:09;;;;;;;30.50;29.03;;;22.60;72.00;;;;;;5051224;28;20482;-65
2023/07/26 07:41:37;;;;;;;30.63;29.43;;;22.60;72.10;;;;;;5050959;28;20452;-64
2023/07/26 07:44:04;;;;;;;30.33;29.13;;;22.60;72.00;;;;;;5050753;28;20452;-64
2023/07/26 07:46:31;;;;;;;29.57;28.37;;;22.60;72.00;;;;;;5050717;28;20496;-64
2023/07/26 07:49:00;;;;;;;32.47;30.93;;;22.60;72.00;;;;;;5051020;28;20531;-64
2023/07/26 07:51:27;;;;;;;31.60;30.40;;;22.60;71.90;;;;;;5050913;28;20484;-64
2023/07/26 07:53:54;;;;;;;31.13;29.83;;;22.70;72.10;;;;;;5051084;28;20477;-65
2023/07/26 07:56:21;;;;;;;32.13;30.63;;;22.60;72.00;;;;;;5050861;28;20444;-64
2023/07/26 07:58:49;;;;;;;31.30;30.00;;;22.60;72.00;;;;;;5050722;28;20475;-64
2023/07/26 08:01:16;;;;;;;31.30;30.10;;;22.60;71.90;;;;;;5050867;28;20506;-64
2023/07/26 08:03:43;;;;;;;31.50;30.27;;;22.60;71.90;;;;;;5050887;28;20890;-64
2023/07/26 08:06:11;;;;;;;31.00;29.80;;;22.60;71.80;;;;;;5050787;28;20444;-64
2023/07/26 08:08:39;;;;;;;30.53;29.23;;;22.60;71.90;;;;;;5050710;28;20947;-64
2023/07/26 08:11:06;;;;;;;30.07;28.90;;;22.70;72.00;;;;;;5050833;28;20499;-64
2023/07/26 08:13:33;;;;;;;29.70;28.57;;;22.70;71.90;;;;;;5050770;28;20448;-64
2023/07/26 08:16:02;;;;;;;31.43;30.13;;;22.70;72.00;;;;;;5050907;28;20475;-64
2023/07/26 08:18:29;;;;;;;30.80;29.70;;;22.70;72.00;;;;;;5050510;28;20494;-64
2023/07/26 08:20:56;;;;;;;30.60;29.30;;;22.60;71.70;;;;;;5050913;28;20781;-65
2023/07/26 08:23:23;;;;;;;30.10;28.90;;;22.70;71.90;;;;;;5050718;28;20955;-64
2023/07/26 08:25:50;;;;;;;30.33;29.13;;;22.70;72.00;;;;;;5050557;28;20502;-64
2023/07/26 08:28:16;;;;;;;30.97;29.67;;;22.70;72.00;;;;;;5050510;28;20499;-65
2023/07/26 08:30:43;;;;;;;31.40;30.20;;;22.70;72.00;;;;;;5050616;28;20483;-64
2023/07/26 08:33:12;;;;;;;30.70;29.40;;;22.70;72.00;;;;;;5050580;28;20567;-65
2023/07/26 08:35:39;;;;;;;30.60;29.40;;;22.70;71.90;;;;;;5050575;28;20531;-64
2023/07/26 08:38:06;;;;;;;30.90;29.50;;;22.70;71.80;;;;;;5050505;28;20491;-64
2023/07/26 08:40:34;;;;;;;30.27;29.03;;;22.70;71.90;;;;;;5050476;28;20482;-64
2023/07/26 08:43:05;;;;;;;29.77;28.57;;;22.70;71.80;;;;;;5050622;28;20892;-64
2023/07/26 08:45:33;;;;;;;28.40;27.20;;;22.70;71.90;;;;;;5050515;28;20823;-64
2023/07/26 08:48:00;;;;;;;29.60;28.40;;;22.70;71.80;;;;;;5050262;28;20472;-64
2023/07/26 08:50:29;;;;;;;29.53;28.40;;;22.70;71.90;;;;;;5050380;28;20986;-64
2023/07/26 08:52:56;;;;;;;30.90;29.70;;;22.70;72.00;;;;;;5050431;28;20514;-64
2023/07/26 08:55:23;;;;;;;29.50;28.30;;;22.70;71.90;;;;;;5050486;28;20498;-65
2023/07/26 08:57:51;;;;;;;29.00;27.80;;;22.70;71.90;;;;;;5053655;28;20500;-65
2023/07/26 09:00:19;;;;;;;29.27;28.17;;;22.70;72.00;;;;;;5054316;28;20476;-64
2023/07/26 09:02:47;;;;;;;29.00;27.90;;;22.60;71.80;;;;;;5053965;28;20451;-64
2023/07/26 09:05:14;;;;;;;28.33;27.23;;;22.70;72.00;;;;;;5053928;28;20476;-63
2023/07/26 09:07:44;;;;;;;29.67;28.47;;;22.70;72.00;;;;;;5053679;28;20499;-64
2023/07/26 09:10:11;;;;;;;29.70;28.40;;;22.70;72.00;;;;;;5054071;28;21042;-64
2023/07/26 09:12:37;;;;;;;29.00;27.80;;;22.70;72.00;;;;;;5053643;28;20566;-64
2023/07/26 09:15:06;;;;;;;30.37;29.17;;;22.70;71.90;;;;;;5053709;28;20536;-64
2023/07/26 09:17:40;;;;;;;29.27;28.07;;;22.60;71.80;;;;;;5053359;28;20465;-65
2023/07/26 09:20:20;;;;;;;28.63;27.53;;;22.70;72.00;;;;;;5053810;28;20476;-62
2023/07/26 09:22:48;;;;;;;27.30;26.10;;;22.70;72.00;;;;;;5053579;28;20444;-62
2023/07/26 09:25:31;;;;;;;29.57;28.37;;;22.70;72.00;;;;;;5053606;28;20967;-64
2023/07/26 09:27:58;;;;;;;29.10;27.90;;;22.70;71.90;;;;;;5045896;28;20464;-65
2023/07/26 09:30:26;;;;;;;29.00;27.80;;;22.70;71.90;;;;;;5053519;28;20455;-63
2023/07/26 09:32:53;;;;;;;27.90;26.70;;;22.70;71.90;;;;;;5045085;28;20467;-63
2023/07/26 09:35:20;;;;;;;29.20;27.80;;;22.70;71.90;;;;;;5053331;28;20468;-65
2023/07/26 09:37:49;;;;;;;29.90;28.10;;;22.70;71.80;;;;;;5052946;28;20893;-61
2023/07/26 09:40:16;;;;;;;29.10;27.90;;;22.70;71.90;;;;;;5053302;28;20440;-64
2023/07/26 09:42:43;;;;;;;29.93;28.73;;;22.70;71.80;;;;;;5053135;28;20468;-64
2023/07/26 09:45:15;;;;;;;29.27;28.07;;;22.70;71.90;;;;;;5053035;28;20440;-64
2023/07/26 09:47:42;;;;;;;30.60;29.40;;;22.70;71.90;;;;;;5052705;28;20998;-64
2023/07/26 09:50:24;;;;;;;29.67;28.47;;;22.70;71.90;;;;;;5053148;28;20444;-64
2023/07/26 09:52:54;;;;;;;29.57;28.37;;;22.70;72.00;;;;;;5052871;28;20476;-64
2023/07/26 09:55:23;;;;;;;28.73;27.53;;;22.70;72.00;;;;;;5053061;28;20476;-63
2023/07/26 09:57:52;;;;;;;30.03;28.83;;;22.70;72.00;;;;;;5052590;28;20990;-64
2023/07/26 10:00:20;;;;;;;28.77;27.67;;;22.70;72.10;;;;;;5052809;28;20448;-63
2023/07/26 10:02:54;;;;;;;28.80;27.57;;;22.70;72.20;;;;;;5052833;28;20502;-64
2023/07/26 10:05:22;;;;;;;29.70;28.50;;;22.70;72.20;;;;;;5052813;28;20441;-65
2023/07/26 10:07:50;;;;;;;29.40;28.30;;;22.70;72.20;;;;;;5052235;28;20475;-64
2023/07/26 10:10:21;;;;;;;27.97;26.87;;;22.70;72.20;;;;;;5052717;28;20440;-64
2023/07/26 10:12:51;;;;;;;27.67;26.57;;;22.70;72.20;;;;;;5052689;28;20480;-63
2023/07/26 10:15:20;;;;;;;28.70;27.50;;;22.70;72.20;;;;;;5052792;28;20866;-64
2023/07/26 10:17:48;;;;;;;29.57;28.37;;;22.70;72.50;;;;;;5052184;28;20534;-64
2023/07/26 10:20:16;;;;;;;30.47;29.27;;;22.60;72.10;;;;;;5052540;28;20566;-63
2023/07/26 10:22:44;;;;;;;27.63;26.43;;;22.70;72.30;;;;;;5052415;28;20479;-64
2023/07/26 10:25:11;;;;;;;30.17;28.97;;;22.70;72.40;;;;;;5052551;28;20441;-65
2023/07/26 10:27:41;;;;;;;30.13;28.83;;;22.70;72.30;;;;;;5051995;28;20806;-63
2023/07/26 10:30:08;;;;;;;29.63;28.43;;;22.70;72.40;;;;;;5052381;28;20479;-64
2023/07/26 10:32:41;;;;;;;29.93;28.73;;;22.70;72.30;;;;;;5052161;28;20515;-65
2023/07/26 10:35:11;;;;;;;29.10;27.93;;;22.70;72.40;;;;;;5052344;28;20876;-63
2023/07/26 10:37:38;;;;;;;28.73;27.53;;;22.70;72.40;;;;;;5051856;28;20830;-64
2023/07/26 10:40:29;;;;;;;29.80;28.50;;;22.70;72.40;;;;;;5052309;28;20823;-64
2023/07/26 10:42:57;;;;;;;30.67;29.47;;;22.70;72.30;;;;;;5041166;28;20448;-64
2023/07/26 10:45:40;;;;;;;29.37;28.20;;;22.70;72.40;;;;;;5052199;28;20874;-64
2023/07/26 10:48:13;;;;;;;29.80;28.50;;;22.70;72.30;;;;;;5044599;28;20485;-64
2023/07/26 10:50:40;;;;;;;29.03;27.93;;;22.70;72.30;;;;;;5052105;28;20444;-63
2023/07/26 10:53:29;;;;;;;29.13;27.93;;;22.70;72.40;;;;;;5051881;28;20573;-64
2023/07/26 10:56:10;;;;;;;26.87;25.80;;;22.70;72.40;;;;;;5052015;28;20880;-64
2023/07/26 10:58:49;;;;;;;28.40;27.30;;;22.70;72.40;;;;;;5051641;28;20486;-62
2023/07/26 11:01:31;;;;;;;27.90;26.80;;;22.70;72.40;;;;;;5051903;28;20476;-64
2023/07/26 11:03:58;;;;;;;28.97;27.77;;;22.70;72.40;;;;;;5043687;28;20444;-64
2023/07/26 11:06:50;;;;;;;28.90;27.80;;;22.70;72.40;;;;;;5051457;28;20441;-66
2023/07/26 11:09:21;;;;;;;29.03;27.83;;;22.70;72.40;;;;;;5046288;28;20436;-62
2023/07/26 11:11:58;;;;;;;28.30;27.20;;;22.70;72.40;;;;;;5051515;28;21117;-64
2023/07/26 11:14:28;;;;;;;27.67;26.47;;;22.70;72.40;;;;;;5051509;28;20514;-64
2023/07/26 11:16:56;;;;;;;26.93;25.83;;;22.70;72.40;;;;;;5051400;28;20471;-63
2023/07/26 11:19:22;;;;;;;26.53;25.43;;;22.70;72.40;;;;;;5050955;28;20502;-64
2023/07/26 11:21:49;;;;;;;28.67;27.47;;;22.70;72.40;;;;;;5051459;28;20479;-63
2023/07/26 11:24:16;;;;;;;27.80;26.70;;;22.70;72.40;;;;;;5051409;28;20804;-63
2023/07/26 11:26:45;;;;;;;27.27;26.07;;;22.70;72.40;;;;;;5050904;28;21047;-62
2023/07/26 11:29:12;;;;;;;29.60;28.23;;;22.70;72.20;;;;;;5051362;28;20476;-62
2023/07/26 11:31:41;;;;;;;30.17;28.97;;;22.70;72.20;;;;;;5051324;28;20479;-63
2023/07/26 11:34:15;;;;;;;29.37;28.17;;;22.70;72.20;;;;;;5051191;28;20514;-62
2023/07/26 11:36:42;;;;;;;28.23;27.13;;;22.70;72.20;;;;;;5050909;28;20459;-64
2023/07/26 11:39:19;;;;;;;30.00;28.80;;;22.70;72.20;;;;;;5051387;28;20455;-61
2023/07/26 11:41:46;;;;;;;30.00;28.80;;;22.70;72.20;;;;;;5051054;28;20452;-64
2023/07/26 11:44:14;;;;;;;29.63;28.43;;;22.70;72.20;;;;;;5051261;28;20487;-63
2023/07/26 11:46:44;;;;;;;32.57;31.27;;;22.70;72.10;;;;;;5050826;28;20471;-62
2023/07/26 11:49:19;;;;;;;27.97;26.87;;;22.70;72.20;;;;;;5051216;28;20478;-63
2023/07/26 11:51:46;;;;;;;28.50;27.40;;;22.70;72.10;;;;;;5051161;28;20443;-64
2023/07/26 11:54:13;;;;;;;31.07;29.87;;;22.70;72.10;;;;;;5051037;28;20638;-63
2023/07/26 11:56:41;;;;;;;28.37;27.17;;;22.70;72.00;;;;;;5050623;28;20503;-62
2023/07/26 11:59:09;;;;;;;29.10;27.80;;;22.70;72.10;;;;;;5051167;28;20858;-62
2023/07/26 12:01:36;;;;;;;29.77;28.57;;;22.70;72.20;;;;;;5050802;28;20472;-64
2023/07/26 12:04:11;;;;;;;27.50;26.40;;;22.70;72.30;;;;;;5051012;28;20532;-63
2023/07/26 12:06:40;;;;;;;29.37;28.17;;;22.70;72.20;;;;;;5050514;28;20467;-62
2023/07/26 12:09:09;;;;;;;27.90;26.80;;;22.70;72.20;;;;;;5050946;28;20521;-64
2023/07/26 12:11:42;;;;;;;27.60;26.50;;;22.70;72.20;;;;;;5050771;28;20483;-63
2023/07/26 12:14:10;;;;;;;28.10;26.90;;;22.80;72.30;;;;;;5050855;28;20565;-62
2023/07/26 12:16:37;;;;;;;27.27;26.17;;;22.70;72.10;;;;;;5050476;28;20488;-62
2023/07/26 12:19:04;;;;;;;26.80;25.70;;;22.80;72.20;;;;;;5050893;28;20615;-63
2023/07/26 12:21:32;;;;;;;26.80;25.70;;;22.70;72.30;;;;;;5050872;28;20878;-64
2023/07/26 12:24:03;;;;;;;28.83;27.63;;;22.80;72.30;;;;;;5042607;28;20479;-64
2023/07/26 12:26:33;;;;;;;27.67;26.57;;;22.70;72.30;;;;;;5050266;28;20967;-64
2023/07/26 12:29:01;;;;;;;26.90;25.80;;;22.80;72.40;;;;;;5042570;28;20448;-64
2023/07/26 12:31:29;;;;;;;29.53;28.33;;;22.80;72.50;;;;;;5052401;28;20479;-64
2023/07/26 12:33:58;;;;;;;27.93;26.80;;;22.80;72.60;;;;;;5054332;28;20991;-62